KPAH/PAH METAR and TAF weather

Enter ICAO airport designator
Station Type Date Time Source
KPAH METAR 2022/01/18 06:53 UTC NOAA

KPAH 180653Z AUTO 00000KT 10SM FEW100 M03/M06 A3007 RMK AO2 SLP186 T10331061


Station Type Date Time Source
KPAH Decoded METAR 2022/01/18 06:53 UTC NOAA

BARKLEY REGIONAL AIRPORT, KY, United States (KPAH) 37-03N 088-46W 118M
Jan 18, 2022 - 01:53 AM EST / 2022.01.18 0653 UTC
Wind: Calm:0
Visibility: 10 mile(s):0
Sky conditions: mostly clear
Temperature: 26.1 F (-3.3 C)
Dew Point: 21.0 F (-6.1 C)
Relative Humidity: 80%
Pressure (altimeter): 30.07 in. Hg (1018 hPa)
ob: KPAH 180653Z AUTO 00000KT 10SM FEW100 M03/M06 A3007 RMK AO2 SLP186 T10331061
cycle: 7

Station Type Date Time Source
KPAH TAF 2022/01/18 06:22 UTC NOAA

TAF KPAH 180520Z 1806/1906 00000KT P6SM FEW110
FM181400 17006KT P6SM SKC
FM181600 19011G19KT P6SM FEW250
FM190000 18011KT P6SM SCT250
FM190400 20009KT P6SM BKN250 WS020/22060KT

Example: see airport list